Time;durP1;ratioP1;P1;durP2;ratioP2;P2;SDS_P1;SDS_P2;PMS_P1;PMS_P2;Temp;Humidity;BMP_temperature;BMP_pressure;BME280_temperature;BME280_humidity;BME280_pressure;Samples;Min_cycle;Max_cycle;Signal;HPM_P1;HPM_P2
2023/06/03 00:00:58;;;;;;;4.90;2.60;;;;;;;6.94;49.51;100898.59;130176;1277;114722;-66
2023/06/03 00:04:21;;;;;;;7.20;3.80;;;;;;;6.91;49.59;100905.04;130074;1260;114628;-66
2023/06/03 00:07:23;;;;;;;7.10;3.60;;;;;;;6.88;49.70;100904.75;130140;1257;114772;-66
2023/06/03 00:10:25;;;;;;;5.50;3.10;;;;;;;6.86;49.79;100904.98;130145;1257;116462;-67
2023/06/03 00:13:27;;;;;;;10.20;3.60;;;;;;;6.83;49.89;100902.01;130178;1274;115160;-66
2023/06/03 00:16:29;;;;;;;5.70;2.30;;;;;;;6.80;50.00;100901.55;129796;1262;114923;-66
2023/06/03 00:19:31;;;;;;;5.00;2.60;;;;;;;6.78;50.01;100900.20;130136;1261;114716;-67
2023/06/03 00:22:36;;;;;;;6.20;2.60;;;;;;;6.76;50.11;100902.39;130171;1278;114810;-66
2023/06/03 00:25:38;;;;;;;8.80;2.50;;;;;;;6.73;50.17;100907.59;129846;1263;115093;-64
2023/06/03 00:28:40;;;;;;;10.30;2.80;;;;;;;6.70;50.13;100909.08;130083;1269;115150;-65
2023/06/03 00:31:42;;;;;;;4.60;2.50;;;;;;;6.68;50.29;100911.80;130153;1277;115212;-67
2023/06/03 00:34:45;;;;;;;6.50;3.30;;;;;;;6.65;50.47;100911.14;129818;1278;114918;-67
2023/06/03 00:37:47;;;;;;;6.60;3.50;;;;;;;6.63;50.57;100913.70;130100;1278;115258;-65
2023/06/03 00:40:49;;;;;;;3.60;2.50;;;;;;;6.61;50.73;100916.05;130185;1261;115361;-65
2023/06/03 00:43:51;;;;;;;5.90;2.40;;;;;;;6.58;50.75;100923.22;130231;1260;129291;-66
2023/06/03 00:46:53;;;;;;;4.60;2.20;;;;;;;6.56;50.71;100925.75;130164;1260;114640;-66
2023/06/03 00:49:56;;;;;;;5.60;2.70;;;;;;;6.53;50.98;100930.78;130179;1278;114724;-65
2023/06/03 00:52:59;;;;;;;6.70;3.00;;;;;;;6.50;51.09;100933.14;129904;1256;114865;-66
2023/06/03 00:56:01;;;;;;;3.50;2.00;;;;;;;6.47;51.08;100937.98;130038;1260;114690;-65
2023/06/03 00:59:03;;;;;;;3.70;2.50;;;;;;;6.45;51.33;100935.59;130205;1278;114744;-65
2023/06/03 01:02:05;;;;;;;4.70;2.00;;;;;;;6.40;51.41;100937.45;130251;1270;114828;-65
2023/06/03 01:05:08;;;;;;;4.20;2.60;;;;;;;6.36;51.60;100936.65;129908;1278;127846;-67
2023/06/03 01:08:26;;;;;;;5.30;2.90;;;;;;;6.32;51.55;100938.69;130408;1278;115389;-66
2023/06/03 01:11:51;;;;;;;5.50;2.70;;;;;;;6.29;51.68;100941.58;129811;1261;114856;-67
2023/06/03 01:15:03;;;;;;;4.90;2.50;;;;;;;6.26;52.00;100943.27;130123;1258;114789;-66
2023/06/03 01:18:06;;;;;;;3.70;2.00;;;;;;;6.22;52.11;100944.23;129881;1255;114774;-65
2023/06/03 01:21:12;;;;;;;8.40;2.40;;;;;;;6.19;52.15;100946.07;130117;1261;115081;-65
2023/06/03 01:24:18;;;;;;;4.80;2.40;;;;;;;6.14;52.39;100943.33;129789;1269;115402;-67
2023/06/03 01:27:20;;;;;;;5.40;2.60;;;;;;;6.09;52.57;100948.57;131269;1249;115057;-64
2023/06/03 01:30:23;;;;;;;7.10;2.40;;;;;;;6.06;52.78;100949.33;130622;1257;114705;-64
2023/06/03 01:33:27;;;;;;;4.40;2.10;;;;;;;6.04;52.82;100951.16;130608;1256;115135;-64
2023/06/03 01:36:29;;;;;;;6.90;2.70;;;;;;;6.01;52.99;100953.70;130160;1261;115103;-64
2023/06/03 01:39:31;;;;;;;6.20;2.60;;;;;;;5.99;53.03;100955.31;130610;1256;114705;-65
2023/06/03 01:42:34;;;;;;;2.30;1.90;;;;;;;5.97;53.28;100958.17;130483;1256;114768;-64
2023/06/03 01:45:36;;;;;;;5.10;1.90;;;;;;;5.93;53.44;100957.90;130782;1256;115405;-64
2023/06/03 01:48:38;;;;;;;8.60;2.90;;;;;;;5.91;53.72;100960.05;130292;1253;114828;-64
2023/06/03 01:51:40;;;;;;;5.00;2.30;;;;;;;5.89;53.78;100966.13;130380;1267;115115;-64
2023/06/03 01:54:42;;;;;;;8.50;2.20;;;;;;;5.86;53.65;100962.29;130490;1274;114708;-64
2023/06/03 01:57:46;;;;;;;7.50;2.30;;;;;;;5.83;53.97;100965.55;130265;1256;114855;-64
2023/06/03 02:00:48;;;;;;;6.30;2.20;;;;;;;5.76;54.00;100965.48;130136;1260;127909;-64
2023/06/03 02:03:50;;;;;;;6.00;2.40;;;;;;;5.70;54.33;100964.55;130259;1259;114745;-64
2023/06/03 02:06:56;;;;;;;4.80;2.60;;;;;;;5.63;54.38;100966.43;130325;1275;114712;-65
2023/06/03 02:09:59;;;;;;;5.60;1.80;;;;;;;5.57;54.64;100970.27;130507;1256;114743;-65
2023/06/03 02:13:01;;;;;;;5.60;2.20;;;;;;;5.53;54.90;100969.80;130408;1256;114699;-65
2023/06/03 02:16:04;;;;;;;8.00;2.20;;;;;;;5.51;54.89;100971.27;130435;1275;114784;-67
2023/06/03 02:19:25;;;;;;;4.10;2.40;;;;;;;5.47;55.00;100974.15;130320;1275;115471;-65
2023/06/03 02:22:27;;;;;;;5.00;2.60;;;;;;;5.45;55.26;100980.41;128236;1253;2636850;-65
2023/06/03 02:25:29;;;;;;;4.60;1.90;;;;;;;5.41;55.27;100985.95;130534;1264;128690;-65
2023/06/03 02:28:32;;;;;;;5.50;3.00;;;;;;;5.37;55.46;100988.50;130515;1254;115144;-65
2023/06/03 02:31:37;;;;;;;3.50;2.00;;;;;;;5.34;55.86;100985.90;130480;1256;114632;-65
2023/06/03 02:34:38;;;;;;;;;;;;;;;5.29;56.04;100992.19;130518;1256;114708;-66
2023/06/03 02:37:41;;;;;;;5.30;2.50;;;;;;;5.25;56.53;100996.67;130465;1257;114702;-65
2023/06/03 02:40:43;;;;;;;4.00;2.60;;;;;;;5.23;56.58;100995.11;130604;1253;114710;-66
2023/06/03 02:43:45;;;;;;;5.20;2.40;;;;;;;5.22;56.74;100998.13;130638;1256;114731;-65
2023/06/03 02:46:47;;;;;;;3.90;2.50;;;;;;;5.21;56.71;100997.98;130443;1257;114798;-64
2023/06/03 02:49:50;;;;;;;4.20;2.60;;;;;;;5.19;57.06;100998.90;130552;1257;114706;-65
2023/06/03 02:52:52;;;;;;;3.90;2.40;;;;;;;5.18;57.14;100998.02;130607;1256;115234;-64
2023/06/03 02:55:55;;;;;;;5.50;2.50;;;;;;;5.18;57.13;101000.70;130300;1253;115151;-64
2023/06/03 02:58:57;;;;;;;3.50;2.50;;;;;;;5.18;57.24;100999.63;130091;1275;114827;-65
2023/06/03 03:01:59;;;;;;;13.30;3.20;;;;;;;5.18;57.70;100999.45;130132;1275;115083;-65
2023/06/03 03:05:01;;;;;;;5.60;3.00;;;;;;;5.19;57.99;101000.32;129710;1254;114787;-64
2023/06/03 03:08:04;;;;;;;5.90;2.20;;;;;;;5.20;57.73;101006.69;130428;1269;115321;-64
2023/06/03 03:11:09;;;;;;;4.70;2.30;;;;;;;5.23;57.83;101007.52;130470;1257;114814;-64
2023/06/03 03:14:11;;;;;;;5.20;2.60;;;;;;;5.24;57.71;101005.72;130310;1258;114734;-65
2023/06/03 03:17:12;;;;;;;6.30;3.00;;;;;;;5.27;57.81;101010.83;130227;1254;114811;-65
2023/06/03 03:20:14;;;;;;;6.70;2.20;;;;;;;5.30;57.79;101011.83;130311;1254;114755;-65
2023/06/03 03:23:17;;;;;;;6.20;2.60;;;;;;;5.34;58.30;101013.36;130164;1257;114800;-66
2023/06/03 03:26:21;;;;;;;4.30;2.40;;;;;;;5.37;58.38;101012.25;130245;1254;114804;-66
2023/06/03 03:29:24;;;;;;;4.80;2.80;;;;;;;5.42;58.29;101013.04;130325;1254;114673;-66
2023/06/03 03:32:26;;;;;;;4.00;2.20;;;;;;;5.47;58.18;101014.19;130279;1269;115080;-64
2023/06/03 03:35:28;;;;;;;13.60;3.20;;;;;;;5.53;58.47;101015.00;130255;1255;114753;-65
2023/06/03 03:38:30;;;;;;;5.60;2.60;;;;;;;5.57;58.52;101012.80;130414;1256;114782;-65
2023/06/03 03:41:32;;;;;;;6.80;2.30;;;;;;;5.63;58.26;101014.10;130385;1256;114879;-65
2023/06/03 03:44:35;;;;;;;5.20;2.20;;;;;;;5.69;58.79;101018.08;130337;1257;115144;-67
2023/06/03 03:47:37;;;;;;;4.30;1.90;;;;;;;5.75;58.62;101017.98;130381;1256;114646;-65
2023/06/03 03:50:39;;;;;;;9.10;2.70;;;;;;;5.79;59.18;101019.15;130332;1256;115154;-65
2023/06/03 03:53:46;;;;;;;3.90;2.30;;;;;;;5.85;58.82;101018.50;130368;1257;114803;-65
2023/06/03 03:56:54;;;;;;;7.50;3.50;;;;;;;5.91;58.44;101019.98;130125;1253;114871;-64
2023/06/03 03:59:56;;;;;;;4.40;1.90;;;;;;;5.98;58.85;101019.16;130574;1254;114714;-65
2023/06/03 04:02:58;;;;;;;3.90;1.90;;;;;;;6.04;58.80;101021.73;130406;1256;114731;-65
2023/06/03 04:06:00;;;;;;;5.60;2.80;;;;;;;6.12;58.64;101023.89;130345;1258;114786;-66
2023/06/03 04:09:07;;;;;;;3.50;2.10;;;;;;;6.21;58.60;101023.18;130258;1275;115214;-66
2023/06/03 04:12:21;;;;;;;5.20;2.20;;;;;;;6.31;58.46;101020.48;130269;1254;114794;-64
2023/06/03 04:15:30;;;;;;;5.40;2.30;;;;;;;6.43;58.50;101024.68;130363;1261;114777;-64
2023/06/03 04:18:33;;;;;;;11.20;2.50;;;;;;;6.56;58.38;101024.42;130301;1254;114735;-65
2023/06/03 04:21:40;;;;;;;5.20;1.80;;;;;;;6.68;58.48;101027.88;130402;1257;114814;-66
2023/06/03 04:24:42;;;;;;;5.80;2.20;;;;;;;6.81;58.29;101029.20;129890;1256;114719;-64
2023/06/03 04:27:44;;;;;;;4.60;2.10;;;;;;;6.93;58.65;101035.16;130491;1254;115385;-64
2023/06/03 04:30:46;;;;;;;5.30;2.40;;;;;;;7.04;58.53;101036.85;130077;1255;114827;-64
2023/06/03 04:33:49;;;;;;;6.10;2.20;;;;;;;7.16;58.21;101044.05;130522;1257;114741;-65
2023/06/03 04:36:51;;;;;;;6.60;2.20;;;;;;;7.30;58.30;101046.90;131417;1254;114721;-66
2023/06/03 04:39:53;;;;;;;4.90;2.20;;;;;;;7.58;58.48;101047.29;131410;1275;115302;-66
2023/06/03 04:42:55;;;;;;;6.50;2.30;;;;;;;8.51;57.67;101045.33;130614;1275;127882;-67
2023/06/03 04:46:00;;;;;;;4.90;2.00;;;;;;;9.74;56.99;101038.66;130628;1254;114696;-68
2023/06/03 04:49:02;;;;;;;6.50;2.10;;;;;;;11.17;55.95;101037.34;130294;1261;114887;-68
2023/06/03 04:52:09;;;;;;;3.60;2.00;;;;;;;12.47;54.16;101033.11;130445;1256;114697;-67
2023/06/03 04:55:14;;;;;;;4.00;1.70;;;;;;;13.82;53.39;101023.91;130133;1254;114819;-65
2023/06/03 04:58:18;;;;;;;11.40;2.10;;;;;;;15.01;51.50;101020.64;130565;1256;129022;-65
2023/06/03 05:01:25;;;;;;;4.30;1.60;;;;;;;16.02;49.43;101019.27;129837;1260;114853;-66
2023/06/03 05:04:29;;;;;;;3.00;2.20;;;;;;;16.83;48.08;101015.69;130455;1257;115127;-64
2023/06/03 05:07:31;;;;;;;5.80;1.90;;;;;;;17.68;46.75;101018.33;130463;1275;115288;-65
2023/06/03 05:10:35;;;;;;;3.20;1.50;;;;;;;18.43;45.40;101016.58;130424;1256;114786;-66
2023/06/03 05:13:38;;;;;;;6.40;2.30;;;;;;;19.02;43.32;101016.88;130588;1256;114728;-66
2023/06/03 05:16:41;;;;;;;4.40;1.40;;;;;;;19.50;43.30;101014.98;130588;1275;114748;-65
2023/06/03 05:19:43;;;;;;;8.40;1.80;;;;;;;20.26;41.59;101020.76;130348;1275;114735;-64
2023/06/03 05:22:45;;;;;;;6.60;2.10;;;;;;;20.58;40.25;101016.61;130553;1254;114819;-64
2023/06/03 05:25:47;;;;;;;2.70;1.30;;;;;;;20.91;39.58;101016.88;130272;1263;114819;-65
2023/06/03 05:28:49;;;;;;;4.80;1.70;;;;;;;21.27;38.36;101018.48;130235;1272;116347;-64
2023/06/03 05:31:51;;;;;;;4.10;2.10;;;;;;;21.57;38.02;101022.31;130597;1256;114732;-64
2023/06/03 05:34:54;;;;;;;2.70;1.50;;;;;;;21.81;36.83;101022.30;130468;1254;129511;-65
2023/06/03 05:37:56;;;;;;;1.80;1.60;;;;;;;21.91;36.38;101021.82;130334;1256;116098;-66
2023/06/03 05:40:59;;;;;;;5.10;1.70;;;;;;;21.98;35.57;101023.40;130326;1270;115023;-64
2023/06/03 05:44:02;;;;;;;2.30;1.50;;;;;;;22.06;35.39;101029.62;130383;1257;115209;-65
2023/06/03 05:47:04;;;;;;;4.80;1.60;;;;;;;22.09;34.38;101026.29;130345;1256;114734;-64
2023/06/03 05:50:06;;;;;;;3.70;1.80;;;;;;;22.07;34.50;101028.45;129936;1261;114930;-65
2023/06/03 05:53:08;;;;;;;3.00;2.00;;;;;;;22.10;33.69;101030.36;130217;1276;114805;-66
2023/06/03 05:56:11;;;;;;;3.60;1.40;;;;;;;22.26;33.97;101029.89;130449;1275;114766;-66
2023/06/03 05:59:13;;;;;;;3.90;1.80;;;;;;;22.77;34.06;101024.66;130288;1276;115148;-68
2023/06/03 06:02:18;;;;;;;5.40;1.60;;;;;;;23.25;33.40;101026.42;130413;1257;115169;-65
2023/06/03 06:05:21;;;;;;;3.80;1.60;;;;;;;23.61;32.27;101028.06;130417;1257;114760;-65
2023/06/03 06:08:23;;;;;;;3.70;1.80;;;;;;;23.63;31.93;101028.58;130216;1276;114819;-66
2023/06/03 06:11:26;;;;;;;4.40;1.60;;;;;;;23.76;31.80;101028.83;130388;1256;114744;-65
2023/06/03 06:14:28;;;;;;;4.40;1.70;;;;;;;23.85;31.14;101030.90;130001;1254;127975;-64
2023/06/03 06:17:30;;;;;;;2.30;1.40;;;;;;;24.06;31.21;101034.03;130411;1257;114817;-65
2023/06/03 06:20:32;;;;;;;1.80;1.30;;;;;;;24.35;30.82;101032.46;130357;1260;114728;-65
2023/06/03 06:23:34;;;;;;;3.50;1.40;;;;;;;24.25;30.35;101030.80;130061;1253;115023;-64
2023/06/03 06:26:38;;;;;;;2.40;1.20;;;;;;;24.29;29.79;101035.36;130397;1257;115339;-64
2023/06/03 06:29:40;;;;;;;2.80;1.40;;;;;;;24.10;29.43;101037.59;130425;1254;115134;-64
2023/06/03 06:32:50;;;;;;;2.90;1.50;;;;;;;23.90;29.61;101030.30;130473;1256;114795;-64
2023/06/03 06:35:52;;;;;;;2.50;1.40;;;;;;;23.87;29.26;101032.77;130222;1275;115144;-64
2023/06/03 06:38:55;;;;;;;3.40;1.40;;;;;;;24.03;29.59;101031.83;130513;1256;114720;-65
2023/06/03 06:42:10;;;;;;;7.00;1.20;;;;;;;23.90;28.56;101027.56;130430;1256;114686;-66
2023/06/03 06:45:22;;;;;;;4.20;1.10;;;;;;;23.55;27.78;101030.65;130363;1252;114692;-66
2023/06/03 06:48:24;;;;;;;3.50;1.20;;;;;;;22.99;27.35;101032.19;130123;1260;126936;-65
2023/06/03 06:51:29;;;;;;;3.30;1.30;;;;;;;22.57;28.15;101030.50;130598;1256;114761;-66
2023/06/03 06:54:33;;;;;;;3.00;1.00;;;;;;;22.32;27.90;101034.64;130382;1254;114712;-65
2023/06/03 06:57:35;;;;;;;2.30;1.40;;;;;;;21.93;27.58;101032.35;130106;1260;116386;-64
2023/06/03 07:00:38;;;;;;;2.00;1.00;;;;;;;21.93;28.09;101033.45;130444;1256;114709;-67
2023/06/03 07:03:40;;;;;;;3.20;1.00;;;;;;;22.33;28.45;101029.31;129977;1257;114747;-64
2023/06/03 07:06:42;;;;;;;2.90;1.20;;;;;;;23.04;28.83;101027.06;130196;1257;115174;-66
2023/06/03 07:09:45;;;;;;;4.30;1.40;;;;;;;23.68;28.06;101029.44;130109;1257;115252;-65
2023/06/03 07:12:51;;;;;;;2.80;1.40;;;;;;;24.00;27.52;101030.84;130399;1257;114779;-66
2023/06/03 07:15:53;;;;;;;3.70;1.30;;;;;;;24.03;26.92;101028.48;130434;1276;115068;-67
2023/06/03 07:18:55;;;;;;;4.30;1.40;;;;;;;24.05;27.15;101028.02;130294;1276;114708;-64
2023/06/03 07:21:57;;;;;;;2.20;1.40;;;;;;;24.11;26.94;101032.30;130375;1254;115597;-66
2023/06/03 07:24:59;;;;;;;1.90;0.90;;;;;;;24.21;25.83;101032.81;130293;1259;128758;-65
2023/06/03 07:28:08;;;;;;;1.60;1.20;;;;;;;24.19;25.86;101031.25;130161;1275;114706;-65
2023/06/03 07:31:10;;;;;;;1.60;0.90;;;;;;;24.22;25.44;101034.73;130746;1256;114657;-66
2023/06/03 07:34:17;;;;;;;2.50;1.30;;;;;;;24.04;25.46;101040.13;130473;1275;114713;-63
2023/06/03 07:37:19;;;;;;;1.50;1.20;;;;;;;24.05;25.68;101038.23;130149;1260;114766;-67
2023/06/03 07:40:29;;;;;;;1.10;0.90;;;;;;;24.15;25.56;101041.33;130415;1259;115480;-64
2023/06/03 07:43:33;;;;;;;1.10;1.00;;;;;;;23.96;25.16;101045.59;130107;1254;115317;-66
2023/06/03 07:46:49;;;;;;;2.90;0.90;;;;;;;24.04;25.30;101041.59;129854;1260;114911;-66
2023/06/03 07:49:51;;;;;;;1.60;1.00;;;;;;;24.11;24.87;101046.17;130129;1260;115153;-66
2023/06/03 07:53:04;;;;;;;2.00;1.00;;;;;;;24.12;25.46;101047.37;130537;1275;114730;-65
2023/06/03 07:56:09;;;;;;;3.10;1.30;;;;;;;24.42;25.72;101045.48;130382;1254;129635;-65
2023/06/03 07:59:13;;;;;;;2.00;1.10;;;;;;;24.71;24.51;101044.16;130508;1275;115395;-66
2023/06/03 08:02:15;;;;;;;2.60;0.80;;;;;;;24.31;23.44;101050.36;130546;1256;115135;-66
2023/06/03 08:05:24;;;;;;;1.20;0.90;;;;;;;24.13;23.62;101048.39;130343;1256;114735;-66
2023/06/03 08:08:30;;;;;;;27.90;12.30;;;;;;;24.04;23.40;101046.31;130153;1260;114699;-66
2023/06/03 08:11:35;;;;;;;88.20;43.90;;;;;;;24.14;23.67;101046.09;130436;1256;128973;-66
2023/06/03 08:14:39;;;;;;;23.60;12.80;;;;;;;24.14;23.43;101045.73;130261;1263;115174;-64
2023/06/03 08:17:41;;;;;;;5.20;1.80;;;;;;;24.15;22.93;101043.98;130456;1257;114719;-65
2023/06/03 08:20:43;;;;;;;2.60;0.90;;;;;;;24.00;22.58;101052.54;130356;1256;114711;-66
2023/06/03 08:23:45;;;;;;;1.10;1.00;;;;;;;23.68;21.92;101049.30;130520;1258;115197;-65
2023/06/03 08:26:49;;;;;;;2.70;1.00;;;;;;;23.38;22.68;101044.91;130648;1256;114779;-66
2023/06/03 08:29:52;;;;;;;1.70;1.40;;;;;;;23.22;22.46;101050.80;130482;1275;114680;-67
2023/06/03 08:32:55;;;;;;;5.20;2.90;;;;;;;22.99;22.96;101049.71;130426;1272;114802;-65
2023/06/03 08:35:57;;;;;;;3.40;1.40;;;;;;;23.10;23.17;101051.09;130467;1256;115379;-66
2023/06/03 08:39:00;;;;;;;3.70;1.30;;;;;;;23.28;22.89;101051.92;130402;1269;115074;-67
2023/06/03 08:42:06;;;;;;;1.80;1.00;;;;;;;23.26;22.46;101052.78;130131;1254;114871;-66
2023/06/03 08:45:16;;;;;;;2.90;1.00;;;;;;;23.05;22.29;101052.85;130024;1260;114729;-67
2023/06/03 08:48:32;;;;;;;4.20;1.20;;;;;;;22.72;22.51;101053.73;130541;1256;128982;-66
2023/06/03 08:51:42;;;;;;;1.90;1.10;;;;;;;22.57;23.03;101046.55;129924;1257;115138;-66
2023/06/03 08:54:45;;;;;;;2.30;1.10;;;;;;;22.42;23.19;101046.14;130308;1262;114737;-66
2023/06/03 08:58:05;;;;;;;2.30;1.30;;;;;;;22.35;23.13;101048.21;130502;1254;115191;-68
2023/06/03 09:01:08;;;;;;;3.90;1.00;;;;;;;22.24;23.29;101047.70;130059;1256;114910;-66
2023/06/03 09:04:12;;;;;;;1.30;1.20;;;;;;;22.22;23.34;101045.55;130262;1273;114726;-63
2023/06/03 09:07:15;;;;;;;2.60;1.20;;;;;;;22.17;23.36;101048.54;130083;1253;115472;-63
2023/06/03 09:10:20;;;;;;;1.60;1.00;;;;;;;22.19;24.06;101045.98;130505;1256;114734;-63
2023/06/03 09:13:23;;;;;;;2.70;1.20;;;;;;;22.48;24.25;101042.25;130054;1262;115379;-63
2023/06/03 09:16:26;;;;;;;3.00;1.00;;;;;;;22.65;23.82;101040.21;130544;1254;114756;-63
2023/06/03 09:19:30;;;;;;;2.20;1.20;;;;;;;22.71;23.82;101032.71;129891;1257;114724;-64
2023/06/03 09:22:33;;;;;;;2.00;1.50;;;;;;;22.66;23.87;101023.48;131992;1256;114638;-65
2023/06/03 09:25:35;;;;;;;6.10;1.00;;;;;;;22.62;24.15;101026.40;130406;1254;115170;-68
2023/06/03 09:28:37;;;;;;;5.20;1.00;;;;;;;22.63;24.23;101025.98;130319;1276;115138;-66
2023/06/03 09:31:41;;;;;;;7.50;1.40;;;;;;;22.56;24.05;101026.61;130257;1255;114712;-65
2023/06/03 09:34:43;;;;;;;1.90;1.00;;;;;;;22.22;23.57;101024.92;130621;1256;114856;-66
2023/06/03 09:37:58;;;;;;;3.60;1.20;;;;;;;21.87;23.79;101024.69;130195;1253;114729;-65
2023/06/03 09:41:12;;;;;;;;;;;;;;;21.61;24.32;101025.48;130065;1275;114900;-65
2023/06/03 09:44:14;;;;;;;5.10;1.30;;;;;;;21.35;24.28;101021.42;130013;1261;114843;-65
2023/06/03 09:47:16;;;;;;;4.90;1.20;;;;;;;21.24;24.72;101012.36;129922;1263;115303;-65
2023/06/03 09:50:20;;;;;;;3.00;1.00;;;;;;;21.13;24.23;101013.77;129874;1265;115221;-68
2023/06/03 09:53:22;;;;;;;2.10;1.20;;;;;;;20.64;23.68;101025.17;129857;1257;114859;-65
2023/06/03 09:56:26;;;;;;;2.00;1.30;;;;;;;20.23;24.27;101028.77;129812;1262;114856;-69
2023/06/03 09:59:30;;;;;;;3.30;1.90;;;;;;;19.90;24.42;101021.20;129988;1262;114732;-65
2023/06/03 10:02:32;;;;;;;1.90;0.90;;;;;;;19.75;24.82;101017.79;129901;1256;114868;-65
2023/06/03 10:05:34;;;;;;;7.30;1.50;;;;;;;19.75;25.11;101017.24;129905;1263;114745;-65
2023/06/03 10:08:38;;;;;;;4.60;1.50;;;;;;;19.63;25.25;101015.23;129948;1257;114891;-64
2023/06/03 10:11:51;;;;;;;1.90;1.20;;;;;;;19.45;25.20;101019.83;129695;1265;114952;-65
2023/06/03 10:14:56;;;;;;;2.80;1.20;;;;;;;19.25;25.36;101014.67;130033;1263;128590;-65
2023/06/03 10:17:59;;;;;;;3.50;1.20;;;;;;;19.12;25.62;101018.13;130453;1253;115141;-64
2023/06/03 10:21:06;;;;;;;1.30;1.10;;;;;;;18.94;25.58;101017.98;130533;1256;115176;-65
2023/06/03 10:24:09;;;;;;;1.60;1.20;;;;;;;18.75;25.65;101008.51;130569;1267;114885;-65
2023/06/03 10:27:13;;;;;;;2.20;1.30;;;;;;;18.60;26.08;101006.71;130101;1259;114742;-65
2023/06/03 10:30:15;;;;;;;3.20;1.10;;;;;;;18.54;26.22;101006.92;130100;1260;115086;-65
2023/06/03 10:33:19;;;;;;;5.10;1.70;;;;;;;18.44;26.43;101003.13;129756;1262;114916;-65
2023/06/03 10:36:23;;;;;;;3.10;1.60;;;;;;;18.33;26.52;101003.88;129776;1281;114891;-65
2023/06/03 10:39:25;;;;;;;1.80;1.30;;;;;;;18.32;26.60;100992.93;129902;1281;115230;-65
2023/06/03 10:42:27;;;;;;;4.10;2.50;;;;;;;18.34;26.43;100992.73;129731;1262;114805;-66
2023/06/03 10:45:30;;;;;;;2.10;1.40;;;;;;;18.28;26.63;100990.48;129788;1279;114807;-65
2023/06/03 10:48:33;;;;;;;2.50;2.20;;;;;;;18.27;26.76;100994.40;129734;1263;127539;-67
2023/06/03 10:52:16;;;;;;;2.50;1.50;;;;;;;18.24;27.04;100982.43;129759;1271;115130;-69
2023/06/03 10:55:25;;;;;;;1.40;1.30;;;;;;;18.29;27.16;100982.27;129005;1275;114710;-66
2023/06/03 10:58:28;;;;;;;5.80;1.40;;;;;;;18.22;27.04;100985.52;129481;1284;114922;-69
2023/06/03 11:01:57;;;;;;;1.80;1.20;;;;;;;18.09;27.17;100984.05;129488;1265;114807;-67
2023/06/03 11:05:24;;;;;;;2.80;1.10;;;;;;;18.03;27.28;100981.61;129592;1284;127513;-69
2023/06/03 11:08:59;;;;;;;4.60;1.50;;;;;;;18.02;27.69;100971.51;129449;1278;115307;-68
2023/06/03 11:12:14;;;;;;;2.30;1.10;;;;;;;17.99;27.58;100981.83;129618;1267;115215;-68
2023/06/03 11:15:16;;;;;;;1.60;1.00;;;;;;;17.86;27.72;100984.50;129626;1274;114796;-68
2023/06/03 11:18:18;;;;;;;2.70;1.30;;;;;;;17.79;27.78;100980.30;129491;1265;115272;-68
2023/06/03 11:21:46;;;;;;;7.00;1.60;;;;;;;17.74;27.90;100976.45;129623;1274;116565;-71
2023/06/03 11:24:50;;;;;;;4.90;1.40;;;;;;;17.69;28.00;100970.70;129396;1285;127829;-67
2023/06/03 11:27:52;;;;;;;;;;;;;;;17.63;28.05;100968.75;129527;1268;114885;-67
2023/06/03 11:30:55;;;;;;;2.90;1.20;;;;;;;17.64;28.35;100969.63;129500;1265;115281;-70
2023/06/03 11:34:23;;;;;;;4.10;1.00;;;;;;;17.71;28.21;100970.56;130167;1254;114648;-68
2023/06/03 11:37:55;;;;;;;1.90;1.10;;;;;;;17.82;28.35;100969.30;130023;1275;115328;-69
2023/06/03 11:40:57;;;;;;;3.70;1.20;;;;;;;17.93;28.41;100966.14;129854;1279;128812;-64
2023/06/03 11:44:22;;;;;;;2.50;1.10;;;;;;;18.02;28.34;100960.67;129893;1262;114772;-67
2023/06/03 11:47:24;;;;;;;;;;;;;;;17.98;27.70;100958.63;129976;1262;114891;-64
2023/06/03 11:50:28;;;;;;;1.40;1.00;;;;;;;17.88;28.02;100956.02;130026;1281;115323;-65
2023/06/03 11:53:37;;;;;;;1.60;1.20;;;;;;;17.89;27.90;100957.20;129965;1259;115113;-64
2023/06/03 11:56:51;;;;;;;2.30;0.70;;;;;;;17.92;27.45;100953.23;129522;1282;127626;-64
2023/06/03 11:59:54;;;;;;;4.20;1.10;;;;;;;17.95;27.08;100955.33;129672;1282;115316;-65
2023/06/03 12:02:56;;;;;;;5.70;1.20;;;;;;;17.92;27.24;100954.30;129848;1263;114814;-65
2023/06/03 12:06:02;;;;;;;1.70;1.30;;;;;;;17.89;27.42;100953.04;129789;1282;114779;-64
2023/06/03 12:09:04;;;;;;;2.80;1.10;;;;;;;17.95;27.77;100946.00;129803;1278;115025;-64
2023/06/03 12:12:08;;;;;;;2.50;1.30;;;;;;;18.01;27.53;100947.77;129792;1278;115516;-64
2023/06/03 12:15:11;;;;;;;4.10;1.60;;;;;;;18.03;27.63;100944.20;129806;1266;114893;-64
2023/06/03 12:18:13;;;;;;;3.70;1.70;;;;;;;18.04;27.54;100941.00;130129;1265;114704;-64
2023/06/03 12:21:22;;;;;;;4.40;1.40;;;;;;;18.03;27.63;100939.06;130191;1275;114702;-65
2023/06/03 12:24:29;;;;;;;2.10;1.30;;;;;;;18.06;27.40;100931.48;130343;1276;114706;-64
2023/06/03 12:27:31;;;;;;;2.10;1.30;;;;;;;18.09;26.96;100930.56;130291;1257;128690;-65
2023/06/03 12:30:34;;;;;;;1.70;1.00;;;;;;;18.13;26.94;100932.41;130359;1260;115283;-64
2023/06/03 12:33:44;;;;;;;0.90;0.70;;;;;;;18.13;26.31;100928.11;130309;1257;114788;-65
2023/06/03 12:36:47;;;;;;;1.80;1.30;;;;;;;18.07;25.87;100925.26;130086;1270;114849;-66
2023/06/03 12:39:50;;;;;;;4.60;1.10;;;;;;;18.10;26.20;100925.07;130349;1259;114901;-66
2023/06/03 12:42:53;;;;;;;2.20;1.00;;;;;;;18.13;26.42;100917.22;130465;1266;114650;-65
2023/06/03 12:46:17;;;;;;;2.00;1.10;;;;;;;18.12;26.79;100909.77;130326;1259;114757;-67
2023/06/03 12:49:21;;;;;;;3.60;0.80;;;;;;;18.10;26.65;100906.60;130437;1257;114709;-65
2023/06/03 12:52:24;;;;;;;3.30;1.30;;;;;;;18.10;27.01;100901.77;130618;1266;114736;-64
2023/06/03 12:55:26;;;;;;;1.50;0.70;;;;;;;18.10;27.19;100900.86;130509;1256;114774;-64
2023/06/03 12:58:28;;;;;;;2.10;0.90;;;;;;;18.12;27.17;100905.39;130402;1275;114826;-65
2023/06/03 13:01:30;;;;;;;2.60;1.10;;;;;;;18.09;27.03;100898.00;130568;1266;114706;-65
2023/06/03 13:04:32;;;;;;;2.50;1.30;;;;;;;18.11;27.29;100895.73;130577;1266;115080;-63
2023/06/03 13:07:35;;;;;;;1.90;1.10;;;;;;;18.10;27.23;100893.83;130525;1257;114735;-65
2023/06/03 13:10:37;;;;;;;5.10;1.30;;;;;;;18.10;27.03;100891.96;130480;1266;114713;-64
2023/06/03 13:13:40;;;;;;;4.70;1.20;;;;;;;18.09;26.86;100889.89;130409;1275;114723;-65
2023/06/03 13:16:42;;;;;;;3.10;1.10;;;;;;;18.10;26.98;100888.05;130351;1256;114701;-64
2023/06/03 13:19:47;;;;;;;2.30;1.40;;;;;;;18.11;27.09;100883.61;130356;1275;115266;-65
2023/06/03 13:22:49;;;;;;;3.60;2.50;;;;;;;18.15;27.16;100881.89;130199;1260;115402;-64
2023/06/03 13:25:51;;;;;;;1.70;1.00;;;;;;;18.20;27.52;100874.61;130289;1259;115292;-65
2023/06/03 13:28:53;;;;;;;2.70;1.10;;;;;;;18.29;27.35;100872.30;130347;1266;114949;-64
2023/06/03 13:31:55;;;;;;;2.10;0.90;;;;;;;18.31;26.84;100875.60;130136;1262;114808;-64
2023/06/03 13:34:59;;;;;;;2.40;0.80;;;;;;;18.27;26.58;100868.52;130416;1258;114717;-64
2023/06/03 13:38:01;;;;;;;3.80;1.20;;;;;;;18.27;26.56;100867.05;130425;1266;114701;-65
2023/06/03 13:41:03;;;;;;;1.40;1.00;;;;;;;18.28;26.65;100867.54;130436;1257;114741;-63
2023/06/03 13:44:05;;;;;;;1.60;1.00;;;;;;;18.29;26.74;100858.42;130418;1273;114731;-63
2023/06/03 13:47:08;;;;;;;3.50;0.80;;;;;;;18.30;26.65;100859.61;130264;1266;114971;-65
2023/06/03 13:50:10;;;;;;;4.00;1.00;;;;;;;18.31;26.58;100856.64;130378;1256;116478;-64
2023/06/03 13:53:12;;;;;;;5.00;1.10;;;;;;;18.32;26.17;100856.05;130274;1267;114715;-64
2023/06/03 13:56:14;;;;;;;3.00;0.60;;;;;;;18.33;26.09;100855.45;130334;1266;115382;-64
2023/06/03 13:59:17;;;;;;;2.20;1.00;;;;;;;18.33;26.30;100847.11;130006;1273;128015;-65
2023/06/03 14:02:19;;;;;;;2.40;1.30;;;;;;;18.35;26.49;100842.28;130321;1264;114683;-64